sensor_id;sensor_type;location;lat;lon;timestamp;P1;durP1;ratioP1;P2;durP2;ratioP2
74851;SDS011;63400;50.650;6.832;2023-05-19T00:00:16;8.07;;;2.85;;
74851;SDS011;63400;50.650;6.832;2023-05-19T00:02:42;9.98;;;2.95;;
74851;SDS011;63400;50.650;6.832;2023-05-19T00:05:09;11.35;;;3.08;;
74851;SDS011;63400;50.650;6.832;2023-05-19T00:07:36;7.20;;;2.40;;
74851;SDS011;63400;50.650;6.832;2023-05-19T00:10:02;10.48;;;2.78;;
74851;SDS011;63400;50.650;6.832;2023-05-19T00:12:28;9.75;;;2.75;;
74851;SDS011;63400;50.650;6.832;2023-05-19T00:14:53;11.27;;;3.45;;
74851;SDS011;63400;50.650;6.832;2023-05-19T00:17:19;10.77;;;3.58;;
74851;SDS011;63400;50.650;6.832;2023-05-19T00:19:45;10.20;;;3.13;;
74851;SDS011;63400;50.650;6.832;2023-05-19T00:22:10;9.82;;;3.15;;
74851;SDS011;63400;50.650;6.832;2023-05-19T00:24:36;11.45;;;4.15;;
74851;SDS011;63400;50.650;6.832;2023-05-19T00:27:01;9.15;;;3.17;;
74851;SDS011;63400;50.650;6.832;2023-05-19T00:29:27;8.30;;;3.20;;
74851;SDS011;63400;50.650;6.832;2023-05-19T00:31:53;10.40;;;3.70;;
74851;SDS011;63400;50.650;6.832;2023-05-19T00:34:18;8.93;;;3.22;;
74851;SDS011;63400;50.650;6.832;2023-05-19T00:36:44;9.35;;;3.22;;
74851;SDS011;63400;50.650;6.832;2023-05-19T00:39:09;10.93;;;3.13;;
74851;SDS011;63400;50.650;6.832;2023-05-19T00:41:35;8.55;;;2.75;;
74851;SDS011;63400;50.650;6.832;2023-05-19T00:44:00;14.65;;;3.67;;
74851;SDS011;63400;50.650;6.832;2023-05-19T00:46:26;11.93;;;3.40;;
74851;SDS011;63400;50.650;6.832;2023-05-19T00:48:51;9.10;;;3.35;;
74851;SDS011;63400;50.650;6.832;2023-05-19T00:51:17;9.65;;;3.05;;
74851;SDS011;63400;50.650;6.832;2023-05-19T00:53:42;11.55;;;3.28;;
74851;SDS011;63400;50.650;6.832;2023-05-19T00:56:12;9.05;;;2.92;;
74851;SDS011;63400;50.650;6.832;2023-05-19T00:58:38;7.78;;;2.70;;
74851;SDS011;63400;50.650;6.832;2023-05-19T01:01:03;9.95;;;3.00;;
74851;SDS011;63400;50.650;6.832;2023-05-19T01:03:32;9.30;;;3.00;;
74851;SDS011;63400;50.650;6.832;2023-05-19T01:05:59;11.05;;;3.55;;
74851;SDS011;63400;50.650;6.832;2023-05-19T01:08:31;8.32;;;2.60;;
74851;SDS011;63400;50.650;6.832;2023-05-19T01:10:58;8.35;;;2.60;;
74851;SDS011;63400;50.650;6.832;2023-05-19T01:13:24;9.63;;;3.05;;
74851;SDS011;63400;50.650;6.832;2023-05-19T01:29:44;10.48;;;3.05;;
74851;SDS011;63400;50.650;6.832;2023-05-19T01:32:12;8.60;;;3.08;;
74851;SDS011;63400;50.650;6.832;2023-05-19T01:34:40;8.98;;;2.72;;
74851;SDS011;63400;50.650;6.832;2023-05-19T01:37:08;13.07;;;3.53;;
74851;SDS011;63400;50.650;6.832;2023-05-19T01:39:34;10.18;;;3.10;;
74851;SDS011;63400;50.650;6.832;2023-05-19T01:42:00;9.10;;;2.80;;
74851;SDS011;63400;50.650;6.832;2023-05-19T01:44:26;12.38;;;3.55;;
74851;SDS011;63400;50.650;6.832;2023-05-19T01:46:51;9.10;;;2.83;;
74851;SDS011;63400;50.650;6.832;2023-05-19T01:49:17;11.70;;;3.53;;
74851;SDS011;63400;50.650;6.832;2023-05-19T01:51:42;12.02;;;3.40;;
74851;SDS011;63400;50.650;6.832;2023-05-19T01:54:08;9.63;;;2.88;;
74851;SDS011;63400;50.650;6.832;2023-05-19T01:59:13;10.93;;;3.28;;
74851;SDS011;63400;50.650;6.832;2023-05-19T02:01:49;11.13;;;3.10;;
74851;SDS011;63400;50.650;6.832;2023-05-19T02:04:22;12.52;;;3.65;;
74851;SDS011;63400;50.650;6.832;2023-05-19T02:07:14;11.18;;;3.33;;
74851;SDS011;63400;50.650;6.832;2023-05-19T02:12:33;9.50;;;2.63;;
74851;SDS011;63400;50.650;6.832;2023-05-19T02:15:06;9.52;;;2.75;;
74851;SDS011;63400;50.650;6.832;2023-05-19T02:20:00;8.43;;;2.95;;
74851;SDS011;63400;50.650;6.832;2023-05-19T02:22:27;12.23;;;3.30;;
74851;SDS011;63400;50.650;6.832;2023-05-19T02:24:52;8.50;;;2.72;;
74851;SDS011;63400;50.650;6.832;2023-05-19T02:27:20;9.98;;;3.00;;
74851;SDS011;63400;50.650;6.832;2023-05-19T02:29:45;10.13;;;3.25;;
74851;SDS011;63400;50.650;6.832;2023-05-19T02:32:12;11.20;;;3.42;;
74851;SDS011;63400;50.650;6.832;2023-05-19T02:34:38;7.32;;;2.20;;
74851;SDS011;63400;50.650;6.832;2023-05-19T02:37:04;9.95;;;3.15;;
74851;SDS011;63400;50.650;6.832;2023-05-19T02:39:29;9.55;;;2.85;;
74851;SDS011;63400;50.650;6.832;2023-05-19T02:41:59;10.40;;;2.90;;
74851;SDS011;63400;50.650;6.832;2023-05-19T02:44:24;13.45;;;3.25;;
74851;SDS011;63400;50.650;6.832;2023-05-19T02:46:50;8.77;;;2.75;;
74851;SDS011;63400;50.650;6.832;2023-05-19T02:49:15;8.75;;;2.42;;
74851;SDS011;63400;50.650;6.832;2023-05-19T02:51:41;13.88;;;4.10;;
74851;SDS011;63400;50.650;6.832;2023-05-19T02:54:06;9.70;;;3.50;;
74851;SDS011;63400;50.650;6.832;2023-05-19T02:56:31;7.20;;;2.40;;
74851;SDS011;63400;50.650;6.832;2023-05-19T02:58:57;11.10;;;3.15;;
74851;SDS011;63400;50.650;6.832;2023-05-19T03:01:24;13.23;;;3.85;;
74851;SDS011;63400;50.650;6.832;2023-05-19T03:03:52;7.63;;;2.65;;
74851;SDS011;63400;50.650;6.832;2023-05-19T03:06:17;8.30;;;2.83;;
74851;SDS011;63400;50.650;6.832;2023-05-19T03:08:42;9.93;;;2.83;;
74851;SDS011;63400;50.650;6.832;2023-05-19T03:11:08;11.73;;;3.15;;
74851;SDS011;63400;50.650;6.832;2023-05-19T03:13:34;10.60;;;3.42;;
74851;SDS011;63400;50.650;6.832;2023-05-19T03:15:59;9.30;;;3.13;;
74851;SDS011;63400;50.650;6.832;2023-05-19T03:18:26;9.88;;;2.92;;
74851;SDS011;63400;50.650;6.832;2023-05-19T03:20:51;11.15;;;3.65;;
74851;SDS011;63400;50.650;6.832;2023-05-19T03:23:20;10.85;;;3.65;;
74851;SDS011;63400;50.650;6.832;2023-05-19T03:25:46;10.43;;;2.88;;
74851;SDS011;63400;50.650;6.832;2023-05-19T03:28:11;11.15;;;3.33;;
74851;SDS011;63400;50.650;6.832;2023-05-19T03:30:37;11.75;;;3.55;;
74851;SDS011;63400;50.650;6.832;2023-05-19T03:33:02;9.75;;;3.10;;
74851;SDS011;63400;50.650;6.832;2023-05-19T03:35:29;11.52;;;3.35;;
74851;SDS011;63400;50.650;6.832;2023-05-19T03:37:54;13.45;;;2.90;;
74851;SDS011;63400;50.650;6.832;2023-05-19T03:40:20;10.68;;;3.03;;
74851;SDS011;63400;50.650;6.832;2023-05-19T03:42:45;9.48;;;2.20;;
74851;SDS011;63400;50.650;6.832;2023-05-19T03:45:11;10.00;;;2.97;;
74851;SDS011;63400;50.650;6.832;2023-05-19T03:47:36;8.77;;;2.72;;
74851;SDS011;63400;50.650;6.832;2023-05-19T03:50:01;12.40;;;3.35;;
74851;SDS011;63400;50.650;6.832;2023-05-19T03:52:27;11.55;;;2.80;;
74851;SDS011;63400;50.650;6.832;2023-05-19T03:54:52;13.43;;;3.22;;
74851;SDS011;63400;50.650;6.832;2023-05-19T03:57:18;11.80;;;3.33;;
74851;SDS011;63400;50.650;6.832;2023-05-19T03:59:44;9.68;;;3.38;;
74851;SDS011;63400;50.650;6.832;2023-05-19T04:02:09;9.68;;;2.55;;
74851;SDS011;63400;50.650;6.832;2023-05-19T04:04:35;8.82;;;2.72;;
74851;SDS011;63400;50.650;6.832;2023-05-19T04:07:02;9.13;;;2.63;;
74851;SDS011;63400;50.650;6.832;2023-05-19T04:09:27;10.18;;;3.00;;
74851;SDS011;63400;50.650;6.832;2023-05-19T04:11:53;10.77;;;3.20;;
74851;SDS011;63400;50.650;6.832;2023-05-19T04:14:18;10.25;;;3.25;;
74851;SDS011;63400;50.650;6.832;2023-05-19T04:16:44;10.15;;;2.40;;
74851;SDS011;63400;50.650;6.832;2023-05-19T04:19:09;8.35;;;2.40;;
74851;SDS011;63400;50.650;6.832;2023-05-19T04:21:35;10.13;;;3.10;;
74851;SDS011;63400;50.650;6.832;2023-05-19T04:24:00;10.45;;;3.15;;
74851;SDS011;63400;50.650;6.832;2023-05-19T04:26:26;14.50;;;3.63;;
74851;SDS011;63400;50.650;6.832;2023-05-19T04:28:55;8.55;;;2.60;;
74851;SDS011;63400;50.650;6.832;2023-05-19T04:31:21;9.98;;;3.42;;
74851;SDS011;63400;50.650;6.832;2023-05-19T04:33:48;8.98;;;2.97;;
74851;SDS011;63400;50.650;6.832;2023-05-19T04:36:13;7.90;;;2.65;;
74851;SDS011;63400;50.650;6.832;2023-05-19T04:43:36;8.18;;;2.67;;
74851;SDS011;63400;50.650;6.832;2023-05-19T04:46:05;11.77;;;3.15;;
74851;SDS011;63400;50.650;6.832;2023-05-19T04:48:32;11.27;;;3.47;;
74851;SDS011;63400;50.650;6.832;2023-05-19T04:50:58;10.48;;;2.88;;
74851;SDS011;63400;50.650;6.832;2023-05-19T04:53:26;12.35;;;3.83;;
74851;SDS011;63400;50.650;6.832;2023-05-19T04:55:55;7.20;;;2.70;;
74851;SDS011;63400;50.650;6.832;2023-05-19T04:58:22;11.65;;;3.15;;
74851;SDS011;63400;50.650;6.832;2023-05-19T05:00:50;11.10;;;2.75;;
74851;SDS011;63400;50.650;6.832;2023-05-19T05:03:16;9.75;;;2.70;;
74851;SDS011;63400;50.650;6.832;2023-05-19T05:05:42;10.20;;;3.00;;
74851;SDS011;63400;50.650;6.832;2023-05-19T05:08:08;10.75;;;2.90;;
74851;SDS011;63400;50.650;6.832;2023-05-19T05:10:35;7.40;;;2.17;;
74851;SDS011;63400;50.650;6.832;2023-05-19T05:13:01;9.02;;;2.17;;
74851;SDS011;63400;50.650;6.832;2023-05-19T05:15:26;8.30;;;2.30;;
74851;SDS011;63400;50.650;6.832;2023-05-19T05:17:53;5.82;;;2.05;;
74851;SDS011;63400;50.650;6.832;2023-05-19T05:20:19;9.30;;;3.13;;
74851;SDS011;63400;50.650;6.832;2023-05-19T05:22:45;5.63;;;2.65;;
74851;SDS011;63400;50.650;6.832;2023-05-19T05:25:11;6.93;;;2.50;;
74851;SDS011;63400;50.650;6.832;2023-05-19T05:27:37;5.28;;;2.15;;
74851;SDS011;63400;50.650;6.832;2023-05-19T05:30:03;6.75;;;2.70;;
74851;SDS011;63400;50.650;6.832;2023-05-19T05:32:29;7.95;;;3.17;;
74851;SDS011;63400;50.650;6.832;2023-05-19T05:34:54;6.30;;;2.55;;
74851;SDS011;63400;50.650;6.832;2023-05-19T05:37:20;6.70;;;3.10;;
74851;SDS011;63400;50.650;6.832;2023-05-19T05:39:45;5.72;;;2.50;;
74851;SDS011;63400;50.650;6.832;2023-05-19T05:42:11;4.65;;;2.72;;
74851;SDS011;63400;50.650;6.832;2023-05-19T05:44:36;6.85;;;2.72;;
74851;SDS011;63400;50.650;6.832;2023-05-19T05:47:02;5.40;;;2.65;;
74851;SDS011;63400;50.650;6.832;2023-05-19T05:49:28;6.22;;;2.28;;
74851;SDS011;63400;50.650;6.832;2023-05-19T05:51:53;5.15;;;2.33;;
74851;SDS011;63400;50.650;6.832;2023-05-19T05:54:22;6.53;;;2.53;;
74851;SDS011;63400;50.650;6.832;2023-05-19T05:56:48;5.43;;;2.10;;
74851;SDS011;63400;50.650;6.832;2023-05-19T05:59:14;6.05;;;1.95;;
74851;SDS011;63400;50.650;6.832;2023-05-19T06:01:40;4.88;;;2.10;;
74851;SDS011;63400;50.650;6.832;2023-05-19T06:04:07;4.90;;;1.90;;
74851;SDS011;63400;50.650;6.832;2023-05-19T06:06:33;4.78;;;1.77;;
74851;SDS011;63400;50.650;6.832;2023-05-19T06:09:00;5.25;;;2.10;;
74851;SDS011;63400;50.650;6.832;2023-05-19T06:11:25;5.00;;;2.33;;
74851;SDS011;63400;50.650;6.832;2023-05-19T06:13:50;7.35;;;1.80;;
74851;SDS011;63400;50.650;6.832;2023-05-19T06:16:16;5.00;;;1.77;;
74851;SDS011;63400;50.650;6.832;2023-05-19T06:18:41;3.38;;;1.38;;
74851;SDS011;63400;50.650;6.832;2023-05-19T06:21:07;7.05;;;2.22;;
74851;SDS011;63400;50.650;6.832;2023-05-19T06:23:34;3.85;;;1.38;;
74851;SDS011;63400;50.650;6.832;2023-05-19T06:26:00;4.70;;;1.13;;
74851;SDS011;63400;50.650;6.832;2023-05-19T06:28:25;7.13;;;2.10;;
74851;SDS011;63400;50.650;6.832;2023-05-19T06:30:51;17.23;;;2.20;;
74851;SDS011;63400;50.650;6.832;2023-05-19T06:33:16;8.10;;;1.65;;
74851;SDS011;63400;50.650;6.832;2023-05-19T06:35:53;3.25;;;1.27;;
74851;SDS011;63400;50.650;6.832;2023-05-19T06:38:22;6.18;;;1.25;;
74851;SDS011;63400;50.650;6.832;2023-05-19T06:44:02;4.05;;;1.00;;
74851;SDS011;63400;50.650;6.832;2023-05-19T06:46:41;5.35;;;1.50;;
74851;SDS011;63400;50.650;6.832;2023-05-19T06:49:09;6.05;;;1.30;;
74851;SDS011;63400;50.650;6.832;2023-05-19T06:51:35;4.43;;;1.25;;
74851;SDS011;63400;50.650;6.832;2023-05-19T06:54:02;3.65;;;0.90;;
74851;SDS011;63400;50.650;6.832;2023-05-19T06:56:28;3.88;;;0.98;;
74851;SDS011;63400;50.650;6.832;2023-05-19T07:01:41;4.32;;;1.02;;
74851;SDS011;63400;50.650;6.832;2023-05-19T07:04:22;3.72;;;1.10;;
74851;SDS011;63400;50.650;6.832;2023-05-19T07:06:49;5.22;;;1.20;;
74851;SDS011;63400;50.650;6.832;2023-05-19T07:15:27;5.05;;;1.08;;
74851;SDS011;63400;50.650;6.832;2023-05-19T07:18:42;4.93;;;1.42;;
74851;SDS011;63400;50.650;6.832;2023-05-19T07:21:29;5.32;;;1.88;;
74851;SDS011;63400;50.650;6.832;2023-05-19T07:28:19;4.07;;;1.42;;
74851;SDS011;63400;50.650;6.832;2023-05-19T07:30:45;6.30;;;1.25;;
74851;SDS011;63400;50.650;6.832;2023-05-19T07:33:11;4.65;;;1.70;;
74851;SDS011;63400;50.650;6.832;2023-05-19T07:35:36;5.50;;;1.23;;
74851;SDS011;63400;50.650;6.832;2023-05-19T07:38:01;7.30;;;1.40;;
74851;SDS011;63400;50.650;6.832;2023-05-19T07:40:27;5.65;;;1.13;;
74851;SDS011;63400;50.650;6.832;2023-05-19T07:42:55;4.63;;;0.73;;
74851;SDS011;63400;50.650;6.832;2023-05-19T07:45:21;4.35;;;0.90;;
74851;SDS011;63400;50.650;6.832;2023-05-19T07:47:46;3.53;;;1.00;;
74851;SDS011;63400;50.650;6.832;2023-05-19T07:50:12;12.82;;;2.10;;
74851;SDS011;63400;50.650;6.832;2023-05-19T07:52:37;4.70;;;1.05;;
74851;SDS011;63400;50.650;6.832;2023-05-19T07:55:03;6.78;;;1.38;;
74851;SDS011;63400;50.650;6.832;2023-05-19T07:57:30;3.92;;;0.82;;
74851;SDS011;63400;50.650;6.832;2023-05-19T08:00:00;5.85;;;0.93;;
74851;SDS011;63400;50.650;6.832;2023-05-19T08:02:26;6.22;;;0.88;;
74851;SDS011;63400;50.650;6.832;2023-05-19T08:04:52;3.65;;;1.33;;
74851;SDS011;63400;50.650;6.832;2023-05-19T08:07:18;2.85;;;0.70;;
74851;SDS011;63400;50.650;6.832;2023-05-19T08:09:43;4.03;;;0.77;;
74851;SDS011;63400;50.650;6.832;2023-05-19T08:12:08;5.15;;;1.27;;
74851;SDS011;63400;50.650;6.832;2023-05-19T08:14:34;4.38;;;0.90;;
74851;SDS011;63400;50.650;6.832;2023-05-19T08:17:00;6.72;;;1.67;;
74851;SDS011;63400;50.650;6.832;2023-05-19T08:19:25;5.35;;;0.93;;
74851;SDS011;63400;50.650;6.832;2023-05-19T08:21:51;3.72;;;1.13;;
74851;SDS011;63400;50.650;6.832;2023-05-19T08:24:16;6.68;;;0.85;;
74851;SDS011;63400;50.650;6.832;2023-05-19T08:26:42;4.18;;;0.95;;
74851;SDS011;63400;50.650;6.832;2023-05-19T08:29:08;3.65;;;0.80;;
74851;SDS011;63400;50.650;6.832;2023-05-19T08:31:33;2.17;;;0.68;;
74851;SDS011;63400;50.650;6.832;2023-05-19T08:33:59;5.00;;;0.88;;
74851;SDS011;63400;50.650;6.832;2023-05-19T08:36:24;4.00;;;0.75;;
74851;SDS011;63400;50.650;6.832;2023-05-19T08:38:50;4.90;;;0.63;;
74851;SDS011;63400;50.650;6.832;2023-05-19T08:41:15;2.33;;;0.52;;
74851;SDS011;63400;50.650;6.832;2023-05-19T08:43:41;14.38;;;1.15;;
74851;SDS011;63400;50.650;6.832;2023-05-19T08:46:07;6.80;;;1.67;;
74851;SDS011;63400;50.650;6.832;2023-05-19T08:48:35;4.57;;;1.45;;
74851;SDS011;63400;50.650;6.832;2023-05-19T08:51:47;2.97;;;0.63;;
74851;SDS011;63400;50.650;6.832;2023-05-19T08:53:50;2.35;;;0.82;;
74851;SDS011;63400;50.650;6.832;2023-05-19T08:56:20;5.40;;;0.98;;
74851;SDS011;63400;50.650;6.832;2023-05-19T08:58:47;4.00;;;0.73;;
74851;SDS011;63400;50.650;6.832;2023-05-19T09:01:14;3.40;;;0.68;;
74851;SDS011;63400;50.650;6.832;2023-05-19T09:03:44;3.45;;;0.73;;
74851;SDS011;63400;50.650;6.832;2023-05-19T09:06:15;4.60;;;0.77;;
74851;SDS011;63400;50.650;6.832;2023-05-19T09:11:30;5.28;;;0.90;;
74851;SDS011;63400;50.650;6.832;2023-05-19T09:16:24;7.93;;;0.95;;
74851;SDS011;63400;50.650;6.832;2023-05-19T09:21:21;6.65;;;0.80;;
74851;SDS011;63400;50.650;6.832;2023-05-19T09:23:52;4.78;;;1.10;;
74851;SDS011;63400;50.650;6.832;2023-05-19T09:26:20;5.03;;;0.82;;
74851;SDS011;63400;50.650;6.832;2023-05-19T09:28:47;4.85;;;1.08;;
74851;SDS011;63400;50.650;6.832;2023-05-19T09:31:13;5.00;;;1.08;;
74851;SDS011;63400;50.650;6.832;2023-05-19T09:36:07;4.07;;;0.60;;
74851;SDS011;63400;50.650;6.832;2023-05-19T09:38:35;4.47;;;0.90;;
74851;SDS011;63400;50.650;6.832;2023-05-19T09:41:02;4.70;;;1.10;;
74851;SDS011;63400;50.650;6.832;2023-05-19T09:43:29;4.72;;;1.17;;
74851;SDS011;63400;50.650;6.832;2023-05-19T09:48:29;4.10;;;0.88;;
74851;SDS011;63400;50.650;6.832;2023-05-19T09:50:55;6.47;;;1.05;;
74851;SDS011;63400;50.650;6.832;2023-05-19T09:53:22;4.32;;;1.00;;
74851;SDS011;63400;50.650;6.832;2023-05-19T09:55:49;3.20;;;1.20;;
74851;SDS011;63400;50.650;6.832;2023-05-19T09:58:16;4.60;;;0.63;;
74851;SDS011;63400;50.650;6.832;2023-05-19T10:00:43;4.07;;;0.77;;
74851;SDS011;63400;50.650;6.832;2023-05-19T10:03:10;4.55;;;0.73;;
74851;SDS011;63400;50.650;6.832;2023-05-19T10:05:36;6.93;;;0.85;;
74851;SDS011;63400;50.650;6.832;2023-05-19T10:08:06;2.97;;;0.60;;
74851;SDS011;63400;50.650;6.832;2023-05-19T10:10:34;3.78;;;0.57;;
74851;SDS011;63400;50.650;6.832;2023-05-19T10:13:03;3.15;;;0.50;;
74851;SDS011;63400;50.650;6.832;2023-05-19T10:15:31;3.20;;;0.70;;
74851;SDS011;63400;50.650;6.832;2023-05-19T10:20:23;5.55;;;1.35;;
74851;SDS011;63400;50.650;6.832;2023-05-19T10:22:50;4.95;;;1.17;;
74851;SDS011;63400;50.650;6.832;2023-05-19T10:25:16;4.32;;;1.25;;
74851;SDS011;63400;50.650;6.832;2023-05-19T10:27:50;4.55;;;0.80;;
74851;SDS011;63400;50.650;6.832;2023-05-19T10:30:28;3.90;;;0.75;;
74851;SDS011;63400;50.650;6.832;2023-05-19T10:32:55;5.70;;;1.13;;
74851;SDS011;63400;50.650;6.832;2023-05-19T10:38:40;4.93;;;1.00;;
74851;SDS011;63400;50.650;6.832;2023-05-19T11:00:59;4.10;;;0.75;;
74851;SDS011;63400;50.650;6.832;2023-05-19T11:03:52;5.28;;;0.82;;
74851;SDS011;63400;50.650;6.832;2023-05-19T11:07:25;4.60;;;0.77;;
74851;SDS011;63400;50.650;6.832;2023-05-19T11:14:17;7.43;;;1.42;;
74851;SDS011;63400;50.650;6.832;2023-05-19T11:24:42;4.88;;;1.10;;
74851;SDS011;63400;50.650;6.832;2023-05-19T11:27:31;7.53;;;1.60;;
74851;SDS011;63400;50.650;6.832;2023-05-19T11:30:43;7.03;;;1.13;;
74851;SDS011;63400;50.650;6.832;2023-05-19T11:33:16;4.95;;;1.13;;
74851;SDS011;63400;50.650;6.832;2023-05-19T11:36:06;3.30;;;0.40;;
74851;SDS011;63400;50.650;6.832;2023-05-19T11:38:57;4.82;;;1.10;;
74851;SDS011;63400;50.650;6.832;2023-05-19T11:41:24;6.22;;;1.25;;
74851;SDS011;63400;50.650;6.832;2023-05-19T11:44:00;3.22;;;0.95;;
74851;SDS011;63400;50.650;6.832;2023-05-19T11:46:28;13.40;;;3.33;;
74851;SDS011;63400;50.650;6.832;2023-05-19T11:49:21;6.90;;;1.15;;
74851;SDS011;63400;50.650;6.832;2023-05-19T11:51:59;5.07;;;0.77;;
74851;SDS011;63400;50.650;6.832;2023-05-19T11:55:07;5.25;;;1.15;;
74851;SDS011;63400;50.650;6.832;2023-05-19T11:57:37;4.70;;;0.70;;
74851;SDS011;63400;50.650;6.832;2023-05-19T12:00:22;4.38;;;0.82;;
74851;SDS011;63400;50.650;6.832;2023-05-19T12:02:49;4.13;;;1.17;;
74851;SDS011;63400;50.650;6.832;2023-05-19T12:05:21;4.22;;;1.10;;
74851;SDS011;63400;50.650;6.832;2023-05-19T12:07:50;9.25;;;1.27;;
74851;SDS011;63400;50.650;6.832;2023-05-19T12:10:25;8.50;;;1.27;;
74851;SDS011;63400;50.650;6.832;2023-05-19T12:12:55;6.78;;;1.40;;
74851;SDS011;63400;50.650;6.832;2023-05-19T12:15:30;5.00;;;0.80;;
74851;SDS011;63400;50.650;6.832;2023-05-19T12:27:41;4.00;;;1.02;;
74851;SDS011;63400;50.650;6.832;2023-05-19T12:30:09;3.75;;;0.60;;
74851;SDS011;63400;50.650;6.832;2023-05-19T12:32:56;4.53;;;1.25;;
74851;SDS011;63400;50.650;6.832;2023-05-19T12:35:29;4.88;;;1.20;;
74851;SDS011;63400;50.650;6.832;2023-05-19T12:38:58;7.40;;;1.27;;
74851;SDS011;63400;50.650;6.832;2023-05-19T12:41:24;5.18;;;1.20;;
74851;SDS011;63400;50.650;6.832;2023-05-19T12:43:51;5.32;;;1.48;;
74851;SDS011;63400;50.650;6.832;2023-05-19T12:46:18;6.07;;;1.10;;
74851;SDS011;63400;50.650;6.832;2023-05-19T12:48:51;4.93;;;0.90;;
74851;SDS011;63400;50.650;6.832;2023-05-19T12:51:50;6.15;;;1.15;;
74851;SDS011;63400;50.650;6.832;2023-05-19T12:54:20;4.95;;;0.98;;
74851;SDS011;63400;50.650;6.832;2023-05-19T12:56:50;5.45;;;1.00;;
74851;SDS011;63400;50.650;6.832;2023-05-19T12:59:20;6.70;;;0.77;;
74851;SDS011;63400;50.650;6.832;2023-05-19T13:01:53;5.00;;;0.77;;
74851;SDS011;63400;50.650;6.832;2023-05-19T13:04:22;4.90;;;1.10;;
74851;SDS011;63400;50.650;6.832;2023-05-19T13:06:49;9.90;;;1.33;;
74851;SDS011;63400;50.650;6.832;2023-05-19T13:09:14;5.10;;;0.95;;
74851;SDS011;63400;50.650;6.832;2023-05-19T13:11:41;5.15;;;1.05;;
74851;SDS011;63400;50.650;6.832;2023-05-19T13:14:08;5.90;;;1.20;;
74851;SDS011;63400;50.650;6.832;2023-05-19T13:16:33;3.88;;;0.95;;
74851;SDS011;63400;50.650;6.832;2023-05-19T13:18:59;6.32;;;0.95;;
74851;SDS011;63400;50.650;6.832;2023-05-19T13:21:25;3.90;;;0.63;;
74851;SDS011;63400;50.650;6.832;2023-05-19T13:23:50;5.43;;;1.00;;
74851;SDS011;63400;50.650;6.832;2023-05-19T13:28:42;5.57;;;1.08;;
74851;SDS011;63400;50.650;6.832;2023-05-19T13:31:08;4.55;;;1.15;;
74851;SDS011;63400;50.650;6.832;2023-05-19T13:33:33;3.83;;;0.60;;
74851;SDS011;63400;50.650;6.832;2023-05-19T13:35:59;4.28;;;1.05;;
74851;SDS011;63400;50.650;6.832;2023-05-19T13:38:24;6.07;;;1.02;;
74851;SDS011;63400;50.650;6.832;2023-05-19T13:40:50;5.25;;;0.93;;
74851;SDS011;63400;50.650;6.832;2023-05-19T13:43:15;5.15;;;0.95;;
74851;SDS011;63400;50.650;6.832;2023-05-19T13:45:40;5.78;;;1.05;;
74851;SDS011;63400;50.650;6.832;2023-05-19T13:48:08;4.07;;;1.52;;
74851;SDS011;63400;50.650;6.832;2023-05-19T13:50:34;5.45;;;0.88;;
74851;SDS011;63400;50.650;6.832;2023-05-19T13:53:00;6.38;;;1.50;;
74851;SDS011;63400;50.650;6.832;2023-05-19T13:55:26;5.80;;;1.42;;
74851;SDS011;63400;50.650;6.832;2023-05-19T13:57:51;5.28;;;1.27;;
74851;SDS011;63400;50.650;6.832;2023-05-19T14:00:17;3.17;;;1.10;;
74851;SDS011;63400;50.650;6.832;2023-05-19T14:02:43;18.13;;;1.98;;
74851;SDS011;63400;50.650;6.832;2023-05-19T14:05:09;5.53;;;1.38;;
74851;SDS011;63400;50.650;6.832;2023-05-19T14:07:35;5.95;;;0.82;;
74851;SDS011;63400;50.650;6.832;2023-05-19T14:10:01;3.70;;;0.75;;
74851;SDS011;63400;50.650;6.832;2023-05-19T14:12:27;9.80;;;1.15;;
74851;SDS011;63400;50.650;6.832;2023-05-19T14:14:54;4.25;;;1.02;;
74851;SDS011;63400;50.650;6.832;2023-05-19T14:17:31;2.67;;;0.80;;
74851;SDS011;63400;50.650;6.832;2023-05-19T14:19:59;3.25;;;1.15;;
74851;SDS011;63400;50.650;6.832;2023-05-19T14:22:27;3.40;;;0.63;;
74851;SDS011;63400;50.650;6.832;2023-05-19T14:24:52;4.30;;;0.95;;
74851;SDS011;63400;50.650;6.832;2023-05-19T14:27:20;3.95;;;0.90;;
74851;SDS011;63400;50.650;6.832;2023-05-19T14:29:45;3.80;;;0.88;;
74851;SDS011;63400;50.650;6.832;2023-05-19T14:32:14;5.60;;;0.80;;
74851;SDS011;63400;50.650;6.832;2023-05-19T14:34:40;5.38;;;1.30;;
74851;SDS011;63400;50.650;6.832;2023-05-19T14:37:06;9.30;;;1.52;;
74851;SDS011;63400;50.650;6.832;2023-05-19T14:39:31;3.78;;;1.02;;
74851;SDS011;63400;50.650;6.832;2023-05-19T14:41:56;8.55;;;1.45;;
74851;SDS011;63400;50.650;6.832;2023-05-19T14:44:23;5.30;;;1.58;;
74851;SDS011;63400;50.650;6.832;2023-05-19T14:46:53;3.17;;;0.65;;
74851;SDS011;63400;50.650;6.832;2023-05-19T14:49:18;3.53;;;0.82;;
74851;SDS011;63400;50.650;6.832;2023-05-19T14:51:44;3.72;;;0.77;;
74851;SDS011;63400;50.650;6.832;2023-05-19T14:54:09;3.88;;;1.30;;
74851;SDS011;63400;50.650;6.832;2023-05-19T14:56:35;5.47;;;1.13;;
74851;SDS011;63400;50.650;6.832;2023-05-19T14:59:00;6.80;;;1.13;;
74851;SDS011;63400;50.650;6.832;2023-05-19T15:01:26;3.17;;;0.95;;
74851;SDS011;63400;50.650;6.832;2023-05-19T15:03:51;3.00;;;0.60;;
74851;SDS011;63400;50.650;6.832;2023-05-19T15:06:17;6.45;;;1.48;;
74851;SDS011;63400;50.650;6.832;2023-05-19T15:08:42;5.18;;;0.98;;
74851;SDS011;63400;50.650;6.832;2023-05-19T15:11:07;6.13;;;1.30;;
74851;SDS011;63400;50.650;6.832;2023-05-19T15:13:33;9.02;;;1.10;;
74851;SDS011;63400;50.650;6.832;2023-05-19T15:15:58;4.97;;;1.02;;
74851;SDS011;63400;50.650;6.832;2023-05-19T15:18:24;4.22;;;0.80;;
74851;SDS011;63400;50.650;6.832;2023-05-19T15:20:50;6.03;;;1.10;;
74851;SDS011;63400;50.650;6.832;2023-05-19T15:23:15;3.80;;;0.95;;
74851;SDS011;63400;50.650;6.832;2023-05-19T15:25:40;16.40;;;1.58;;
74851;SDS011;63400;50.650;6.832;2023-05-19T15:28:06;5.60;;;1.17;;
74851;SDS011;63400;50.650;6.832;2023-05-19T15:30:32;3.40;;;0.52;;
74851;SDS011;63400;50.650;6.832;2023-05-19T15:32:57;4.97;;;1.30;;
74851;SDS011;63400;50.650;6.832;2023-05-19T15:35:23;4.72;;;1.05;;
74851;SDS011;63400;50.650;6.832;2023-05-19T15:37:48;23.60;;;2.10;;
74851;SDS011;63400;50.650;6.832;2023-05-19T15:40:13;5.00;;;1.13;;
74851;SDS011;63400;50.650;6.832;2023-05-19T15:42:39;6.40;;;1.40;;
74851;SDS011;63400;50.650;6.832;2023-05-19T15:45:05;7.20;;;0.77;;
74851;SDS011;63400;50.650;6.832;2023-05-19T15:47:32;5.07;;;1.08;;
74851;SDS011;63400;50.650;6.832;2023-05-19T15:50:00;5.30;;;1.02;;
74851;SDS011;63400;50.650;6.832;2023-05-19T16:20:20;5.40;;;0.80;;
74851;SDS011;63400;50.650;6.832;2023-05-19T16:23:32;4.07;;;0.98;;
74851;SDS011;63400;50.650;6.832;2023-05-19T16:30:26;6.95;;;1.83;;
74851;SDS011;63400;50.650;6.832;2023-05-19T16:32:52;7.35;;;1.33;;
74851;SDS011;63400;50.650;6.832;2023-05-19T16:35:21;5.05;;;1.00;;
74851;SDS011;63400;50.650;6.832;2023-05-19T16:37:47;3.70;;;0.55;;
74851;SDS011;63400;50.650;6.832;2023-05-19T16:40:16;3.83;;;0.98;;
74851;SDS011;63400;50.650;6.832;2023-05-19T16:42:57;5.30;;;0.85;;
74851;SDS011;63400;50.650;6.832;2023-05-19T16:52:16;3.25;;;0.50;;
74851;SDS011;63400;50.650;6.832;2023-05-19T16:54:41;3.00;;;0.88;;
74851;SDS011;63400;50.650;6.832;2023-05-19T16:57:07;16.27;;;1.90;;
74851;SDS011;63400;50.650;6.832;2023-05-19T16:59:33;6.75;;;1.00;;
74851;SDS011;63400;50.650;6.832;2023-05-19T17:02:00;5.43;;;0.80;;
74851;SDS011;63400;50.650;6.832;2023-05-19T17:04:25;3.33;;;0.88;;
74851;SDS011;63400;50.650;6.832;2023-05-19T17:06:52;4.75;;;0.80;;
74851;SDS011;63400;50.650;6.832;2023-05-19T17:09:20;3.28;;;0.80;;
74851;SDS011;63400;50.650;6.832;2023-05-19T17:11:49;2.67;;;0.60;;
74851;SDS011;63400;50.650;6.832;2023-05-19T17:14:18;3.17;;;0.68;;
74851;SDS011;63400;50.650;6.832;2023-05-19T17:16:43;5.45;;;1.02;;